Time;durP1;ratioP1;P1;durP2;ratioP2;P2;SDS_P1;SDS_P2;PMS_P1;PMS_P2;Temp;Humidity;BMP_temperature;BMP_pressure;BME280_temperature;BME280_humidity;BME280_pressure;Samples;Min_cycle;Max_cycle;Signal;HPM_P1;HPM_P2
2021/01/15 00:02:12;;;;;;;22.40;15.85;;;;;;;;;;5053141;28;20221;-59
2021/01/15 00:04:38;;;;;;;21.95;15.68;;;;;;;;;;5053102;28;20210;-60
2021/01/15 00:07:06;;;;;;;24.23;14.88;;;;;;;;;;5053273;28;20205;-60
2021/01/15 00:09:33;;;;;;;23.92;16.50;;;;;;;;;;5053132;28;20201;-60
2021/01/15 00:12:00;;;;;;;24.35;15.30;;;;;;;;;;5053057;28;20225;-60
2021/01/15 00:14:26;;;;;;;22.23;15.38;;;;;;;;;;5053364;28;20279;-60
2021/01/15 00:16:54;;;;;;;25.75;17.27;;;;;;;;;;5053698;28;20204;-60
2021/01/15 00:19:20;;;;;;;24.83;15.45;;;;;;;;;;5053874;28;20233;-60
2021/01/15 00:21:50;;;;;;;21.95;15.32;;;;;;;;;;5053817;28;20209;-60
2021/01/15 00:24:18;;;;;;;25.85;16.45;;;;;;;;;;5058267;28;20296;-60
2021/01/15 00:26:45;;;;;;;22.83;15.73;;;;;;;;;;5058328;28;20205;-59
2021/01/15 00:29:13;;;;;;;23.98;16.85;;;;;;;;;;5057015;28;20217;-60
2021/01/15 00:31:40;;;;;;;24.15;15.30;;;;;;;;;;5057222;28;20208;-59
2021/01/15 00:34:08;;;;;;;24.45;16.45;;;;;;;;;;5056735;28;20670;-60
2021/01/15 00:36:35;;;;;;;23.17;15.50;;;;;;;;;;5056898;28;20202;-60
2021/01/15 00:39:02;;;;;;;26.27;16.35;;;;;;;;;;5056968;28;20197;-59
2021/01/15 00:41:29;;;;;;;22.00;15.57;;;;;;;;;;5056783;28;20674;-59
2021/01/15 00:43:56;;;;;;;23.15;16.45;;;;;;;;;;5057000;28;20268;-59
2021/01/15 00:46:31;;;;;;;22.90;15.63;;;;;;;;;;5056664;28;20205;-60
2021/01/15 00:48:59;;;;;;;24.63;16.55;;;;;;;;;;5056835;28;20556;-60
2021/01/15 00:51:26;;;;;;;19.23;14.00;;;;;;;;;;5056889;28;20205;-60
2021/01/15 00:53:52;;;;;;;18.77;14.95;;;;;;;;;;5056685;28;20249;-61
2021/01/15 00:56:20;;;;;;;23.67;14.82;;;;;;;;;;5056316;28;20580;-59
2021/01/15 00:58:48;;;;;;;21.33;15.75;;;;;;;;;;5056653;28;20198;-60
2021/01/15 01:01:15;;;;;;;22.27;15.57;;;;;;;;;;5056023;28;20209;-60
2021/01/15 01:03:42;;;;;;;20.05;14.18;;;;;;;;;;5056361;28;20575;-61
2021/01/15 01:06:12;;;;;;;23.48;15.48;;;;;;;;;;5056351;28;20208;-59
2021/01/15 01:08:39;;;;;;;20.25;14.00;;;;;;;;;;5056407;28;20214;-60
2021/01/15 01:11:11;;;;;;;18.42;14.85;;;;;;;;;;5055977;28;20206;-60
2021/01/15 01:13:37;;;;;;;19.50;14.80;;;;;;;;;;5056228;28;20264;-60
2021/01/15 01:16:06;;;;;;;20.50;14.77;;;;;;;;;;5056327;28;20206;-59
2021/01/15 01:18:33;;;;;;;20.13;15.23;;;;;;;;;;5056157;28;20570;-60
2021/01/15 01:21:00;;;;;;;22.30;15.40;;;;;;;;;;5057442;28;20205;-61
2021/01/15 01:23:27;;;;;;;21.70;13.82;;;;;;;;;;5056731;28;20225;-59
2021/01/15 01:25:54;;;;;;;19.92;14.15;;;;;;;;;;5057532;28;20212;-60
2021/01/15 01:28:20;;;;;;;19.27;14.23;;;;;;;;;;5057682;28;20225;-59
2021/01/15 01:30:47;;;;;;;24.95;14.43;;;;;;;;;;5063656;28;20197;-60
2021/01/15 01:33:15;;;;;;;18.77;13.98;;;;;;;;;;5066019;28;20230;-60
2021/01/15 01:35:41;;;;;;;17.00;13.48;;;;;;;;;;5070833;28;20205;-60
2021/01/15 01:38:08;;;;;;;21.08;14.52;;;;;;;;;;5059518;28;20205;-60
2021/01/15 01:40:35;;;;;;;18.95;13.20;;;;;;;;;;5057076;28;20201;-59
2021/01/15 01:43:02;;;;;;;26.65;14.02;;;;;;;;;;5056932;28;20229;-59
2021/01/15 01:45:29;;;;;;;18.25;12.77;;;;;;;;;;5056043;28;20201;-60
2021/01/15 01:47:56;;;;;;;21.02;15.10;;;;;;;;;;5055778;28;20218;-59
2021/01/15 01:50:25;;;;;;;19.30;14.07;;;;;;;;;;5055366;28;20201;-60
2021/01/15 01:52:51;;;;;;;18.02;13.18;;;;;;;;;;5055442;28;20229;-60
2021/01/15 01:55:18;;;;;;;21.23;13.32;;;;;;;;;;5055519;28;20206;-60
2021/01/15 01:57:45;;;;;;;16.92;13.20;;;;;;;;;;5055643;28;20568;-61
2021/01/15 02:00:13;;;;;;;20.02;14.15;;;;;;;;;;5056870;28;20749;-60
2021/01/15 02:02:40;;;;;;;17.10;13.75;;;;;;;;;;5071843;28;20222;-62
2021/01/15 02:05:07;;;;;;;21.40;13.50;;;;;;;;;;5071321;28;20212;-60
2021/01/15 02:07:35;;;;;;;15.90;12.23;;;;;;;;;;5070311;28;20205;-60
2021/01/15 02:10:04;;;;;;;17.83;12.05;;;;;;;;;;5066260;28;20202;-59
2021/01/15 02:12:37;;;;;;;16.77;12.68;;;;;;;;;;5062849;28;20226;-59
2021/01/15 02:15:06;;;;;;;17.80;12.82;;;;;;;;;;5061894;28;20190;-59
2021/01/15 02:17:35;;;;;;;18.10;12.13;;;;;;;;;;5059365;28;20197;-60
2021/01/15 02:20:04;;;;;;;15.85;11.40;;;;;;;;;;5059236;28;20198;-60
2021/01/15 02:22:44;;;;;;;18.27;12.10;;;;;;;;;;5058008;28;20344;-60
2021/01/15 02:25:34;;;;;;;19.63;13.10;;;;;;;;;;5056096;28;20197;-60
2021/01/15 02:28:22;;;;;;;17.33;12.90;;;;;;;;;;5055299;28;20202;-60
2021/01/15 02:30:56;;;;;;;22.40;12.63;;;;;;;;;;5029697;28;20212;-60
2021/01/15 02:33:27;;;;;;;18.70;12.02;;;;;;;;;;5054631;28;20236;-59
2021/01/15 02:35:56;;;;;;;17.25;11.88;;;;;;;;;;5055238;28;20558;-61
2021/01/15 02:38:38;;;;;;;16.75;12.48;;;;;;;;;;5054703;28;20575;-60
2021/01/15 02:41:18;;;;;;;14.27;11.68;;;;;;;;;;5054709;28;20185;-60
2021/01/15 02:43:46;;;;;;;18.33;10.85;;;;;;;;;;5055392;28;20221;-59
2021/01/15 02:46:15;;;;;;;19.00;11.88;;;;;;;;;;5054943;28;20255;-60
2021/01/15 02:48:47;;;;;;;19.60;11.93;;;;;;;;;;5056769;28;20222;-61
2021/01/15 02:51:14;;;;;;;16.90;11.57;;;;;;;;;;5055350;28;20187;-59
2021/01/15 02:53:41;;;;;;;17.25;11.70;;;;;;;;;;5056258;28;20237;-59
2021/01/15 02:56:08;;;;;;;16.92;10.60;;;;;;;;;;5057436;28;20618;-59
2021/01/15 02:58:34;;;;;;;13.13;10.80;;;;;;;;;;5058589;28;20198;-60
2021/01/15 03:01:01;;;;;;;15.70;11.20;;;;;;;;;;5059408;28;20213;-59
2021/01/15 03:03:31;;;;;;;14.40;10.85;;;;;;;;;;5054130;28;20229;-60
2021/01/15 03:06:03;;;;;;;16.67;11.18;;;;;;;;;;5054610;28;20247;-60
2021/01/15 03:08:30;;;;;;;16.40;12.30;;;;;;;;;;5054006;28;20205;-60
2021/01/15 03:11:00;;;;;;;15.65;11.32;;;;;;;;;;5054279;28;20209;-61
2021/01/15 03:13:29;;;;;;;14.52;10.85;;;;;;;;;;5054197;28;20217;-60
2021/01/15 03:15:57;;;;;;;14.88;9.32;;;;;;;;;;5054223;28;20288;-59
2021/01/15 03:18:24;;;;;;;15.10;10.38;;;;;;;;;;5057201;28;20524;-60
2021/01/15 03:20:51;;;;;;;13.82;10.70;;;;;;;;;;5056548;28;20209;-60
2021/01/15 03:23:18;;;;;;;13.98;10.02;;;;;;;;;;5055507;28;20229;-59
2021/01/15 03:25:45;;;;;;;21.92;9.55;;;;;;;;;;5054656;28;20259;-60
2021/01/15 03:28:12;;;;;;;12.75;10.02;;;;;;;;;;5054858;28;20217;-60
2021/01/15 03:30:39;;;;;;;12.35;9.57;;;;;;;;;;5054611;28;20198;-60
2021/01/15 03:33:06;;;;;;;14.95;11.27;;;;;;;;;;5054242;28;20282;-59
2021/01/15 03:35:33;;;;;;;13.55;10.00;;;;;;;;;;5054047;28;20205;-60
2021/01/15 03:38:01;;;;;;;11.95;9.75;;;;;;;;;;5053384;28;20677;-59
2021/01/15 03:40:29;;;;;;;15.85;10.68;;;;;;;;;;5053726;28;20209;-60
2021/01/15 03:42:56;;;;;;;14.80;10.20;;;;;;;;;;5054160;28;20251;-60
2021/01/15 03:45:23;;;;;;;12.38;9.50;;;;;;;;;;5053799;28;20228;-60
2021/01/15 03:47:50;;;;;;;11.20;9.57;;;;;;;;;;5053715;28;20221;-60
2021/01/15 03:50:16;;;;;;;12.80;8.90;;;;;;;;;;5053971;28;20197;-60
2021/01/15 03:52:43;;;;;;;13.02;10.18;;;;;;;;;;5053998;28;20229;-60
2021/01/15 03:55:10;;;;;;;13.30;9.43;;;;;;;;;;5054367;28;20224;-60
2021/01/15 03:57:38;;;;;;;12.90;9.95;;;;;;;;;;5055031;28;20208;-60
2021/01/15 04:00:06;;;;;;;12.00;9.20;;;;;;;;;;5054979;28;20662;-60
2021/01/15 04:02:32;;;;;;;17.10;10.60;;;;;;;;;;5054261;28;20218;-61
2021/01/15 04:07:35;;;;;;;12.70;9.65;;;;;;;;;;5112889;27;20548;-60
2021/01/15 04:10:02;;;;;;;12.57;8.73;;;;;;;;;;5113258;28;20207;-60
2021/01/15 04:12:30;;;;;;;14.93;9.43;;;;;;;;;;5112179;28;20269;-60
2021/01/15 04:14:57;;;;;;;12.90;9.30;;;;;;;;;;5112252;28;20653;-59
2021/01/15 04:17:24;;;;;;;15.35;11.00;;;;;;;;;;5111706;28;20245;-59
2021/01/15 04:22:19;;;;;;;13.88;9.38;;;;;;;;;;5049053;28;20206;-55
2021/01/15 04:24:47;;;;;;;12.38;9.40;;;;;;;;;;5050267;28;20202;-54
2021/01/15 04:27:13;;;;;;;12.65;8.93;;;;;;;;;;5049768;28;20225;-54
2021/01/15 04:29:40;;;;;;;11.20;8.68;;;;;;;;;;5050263;28;20209;-55
2021/01/15 04:32:07;;;;;;;14.23;10.18;;;;;;;;;;5050002;28;20221;-56
2021/01/15 04:34:33;;;;;;;12.95;9.60;;;;;;;;;;5050073;28;20206;-55
2021/01/15 04:37:00;;;;;;;10.40;9.10;;;;;;;;;;5050097;28;20209;-54
2021/01/15 04:39:27;;;;;;;13.15;10.40;;;;;;;;;;5049656;28;20708;-55
2021/01/15 04:41:55;;;;;;;13.35;8.90;;;;;;;;;;5049599;28;20225;-55
2021/01/15 04:44:22;;;;;;;14.07;9.48;;;;;;;;;;5049634;28;20670;-55
2021/01/15 04:46:50;;;;;;;11.23;8.95;;;;;;;;;;5049806;28;20218;-54
2021/01/15 04:49:21;;;;;;;14.70;10.07;;;;;;;;;;5049934;28;20301;-56
2021/01/15 04:51:51;;;;;;;11.13;9.20;;;;;;;;;;5049690;28;20280;-55
2021/01/15 04:54:21;;;;;;;11.15;8.95;;;;;;;;;;5050764;28;20202;-55
2021/01/15 04:56:49;;;;;;;11.63;9.55;;;;;;;;;;5049444;28;20202;-55
2021/01/15 04:59:17;;;;;;;11.57;9.15;;;;;;;;;;5049739;28;20252;-56
2021/01/15 05:01:45;;;;;;;10.82;8.90;;;;;;;;;;5049489;28;20655;-56
2021/01/15 05:04:12;;;;;;;12.70;9.30;;;;;;;;;;5049807;28;20259;-56
2021/01/15 05:06:44;;;;;;;10.82;8.93;;;;;;;;;;5049403;28;20708;-55
2021/01/15 05:09:11;;;;;;;11.40;9.35;;;;;;;;;;5049449;28;20194;-54
2021/01/15 05:11:38;;;;;;;12.32;9.40;;;;;;;;;;5049638;28;20218;-55
2021/01/15 05:14:08;;;;;;;10.63;7.65;;;;;;;;;;5049547;28;20256;-55
2021/01/15 05:16:38;;;;;;;13.95;9.07;;;;;;;;;;5049964;28;20289;-55
2021/01/15 05:19:05;;;;;;;12.27;9.18;;;;;;;;;;5035531;28;20232;-56
2021/01/15 05:21:32;;;;;;;11.23;8.80;;;;;;;;;;5035824;28;20234;-55
2021/01/15 05:23:59;;;;;;;14.63;9.73;;;;;;;;;;5036249;28;20261;-55
2021/01/15 05:26:26;;;;;;;9.75;8.73;;;;;;;;;;5035923;28;20225;-55
2021/01/15 05:28:53;;;;;;;12.38;9.68;;;;;;;;;;5035957;28;20206;-55
2021/01/15 05:31:20;;;;;;;11.70;9.05;;;;;;;;;;5035544;28;20311;-55
2021/01/15 05:34:06;;;;;;;12.45;8.85;;;;;;;;;;5035990;28;20202;-55
2021/01/15 05:36:34;;;;;;;11.73;9.18;;;;;;;;;;5035763;28;20289;-55
2021/01/15 05:39:11;;;;;;;9.57;8.55;;;;;;;;;;5035720;28;20202;-55
2021/01/15 05:41:38;;;;;;;12.32;8.70;;;;;;;;;;5035273;28;20779;-54
2021/01/15 05:44:05;;;;;;;12.27;9.85;;;;;;;;;;5035241;28;20689;-55
2021/01/15 05:46:32;;;;;;;13.27;9.13;;;;;;;;;;5035370;28;20218;-55
2021/01/15 05:49:08;;;;;;;10.65;8.82;;;;;;;;;;5035445;28;20256;-55
2021/01/15 05:51:37;;;;;;;12.75;10.27;;;;;;;;;;5035625;28;20226;-55
2021/01/15 05:54:04;;;;;;;15.55;9.88;;;;;;;;;;5035290;28;20202;-55
2021/01/15 05:56:39;;;;;;;14.45;10.10;;;;;;;;;;5035409;28;20198;-55
2021/01/15 05:59:06;;;;;;;14.63;10.27;;;;;;;;;;5035539;28;20299;-57
2021/01/15 06:01:43;;;;;;;15.98;9.68;;;;;;;;;;5035198;28;20226;-55
2021/01/15 06:04:10;;;;;;;16.40;11.05;;;;;;;;;;5035429;28;20198;-54
2021/01/15 06:06:38;;;;;;;14.55;10.05;;;;;;;;;;5034897;28;20249;-54
2021/01/15 06:09:05;;;;;;;17.90;10.85;;;;;;;;;;5034814;28;20285;-54
2021/01/15 06:11:33;;;;;;;15.32;10.27;;;;;;;;;;5035461;28;20218;-56
2021/01/15 06:13:59;;;;;;;16.02;10.35;;;;;;;;;;5036359;28;20206;-56
2021/01/15 06:16:26;;;;;;;15.85;11.88;;;;;;;;;;5035864;28;20199;-58
2021/01/15 06:18:57;;;;;;;21.15;13.10;;;;;;;;;;5034823;28;20198;-55
2021/01/15 06:21:29;;;;;;;15.55;11.68;;;;;;;;;;5035336;28;20307;-57
2021/01/15 06:23:59;;;;;;;15.85;11.15;;;;;;;;;;5034958;28;20240;-56
2021/01/15 06:26:33;;;;;;;20.20;12.27;;;;;;;;;;5034856;28;20226;-56
2021/01/15 06:29:05;;;;;;;17.30;10.93;;;;;;;;;;5033719;28;20256;-55
2021/01/15 06:31:31;;;;;;;17.40;12.32;;;;;;;;;;5034578;28;20591;-55
2021/01/15 06:34:01;;;;;;;16.33;11.02;;;;;;;;;;5034317;28;20210;-56
2021/01/15 06:36:43;;;;;;;15.30;11.80;;;;;;;;;;5034342;28;20198;-56
2021/01/15 06:39:11;;;;;;;19.58;12.52;;;;;;;;;;5034027;28;20202;-55
2021/01/15 06:41:41;;;;;;;17.42;11.80;;;;;;;;;;5033999;28;20226;-55
2021/01/15 06:44:09;;;;;;;19.45;14.13;;;;;;;;;;5033997;28;20294;-55
2021/01/15 06:46:41;;;;;;;18.88;13.30;;;;;;;;;;5034131;28;20218;-55
2021/01/15 06:49:14;;;;;;;19.73;13.38;;;;;;;;;;5034217;28;20191;-55
2021/01/15 06:51:52;;;;;;;19.05;14.20;;;;;;;;;;5034087;28;20222;-55
2021/01/15 06:54:23;;;;;;;20.48;13.25;;;;;;;;;;5035187;28;20187;-57
2021/01/15 06:56:53;;;;;;;19.65;13.95;;;;;;;;;;5035653;28;20179;-57
2021/01/15 06:59:29;;;;;;;23.08;14.98;;;;;;;;;;5034553;28;20209;-55
2021/01/15 07:02:09;;;;;;;21.30;14.15;;;;;;;;;;5033979;28;20218;-55
2021/01/15 07:04:41;;;;;;;22.52;14.32;;;;;;;;;;5035283;28;20190;-56
2021/01/15 07:07:12;;;;;;;20.88;13.60;;;;;;;;;;5034061;28;20611;-55
2021/01/15 07:09:41;;;;;;;18.02;13.60;;;;;;;;;;5033687;28;20294;-56
2021/01/15 07:12:09;;;;;;;20.02;14.20;;;;;;;;;;5033300;28;20304;-56
2021/01/15 07:14:47;;;;;;;21.50;14.75;;;;;;;;;;5034002;28;20646;-56
2021/01/15 07:17:18;;;;;;;19.70;14.20;;;;;;;;;;5033742;28;20189;-55
2021/01/15 07:19:46;;;;;;;22.65;14.95;;;;;;;;;;5033717;28;20210;-55
2021/01/15 07:22:14;;;;;;;22.60;15.30;;;;;;;;;;5032922;28;20230;-54
2021/01/15 07:24:43;;;;;;;22.23;15.13;;;;;;;;;;5033494;28;20202;-56
2021/01/15 07:27:10;;;;;;;22.77;13.85;;;;;;;;;;5033302;28;20215;-55
2021/01/15 07:29:48;;;;;;;22.80;15.88;;;;;;;;;;5033707;28;20621;-54
2021/01/15 07:32:20;;;;;;;20.20;15.07;;;;;;;;;;5033454;28;20280;-55
2021/01/15 07:34:49;;;;;;;20.85;14.82;;;;;;;;;;5034219;28;20297;-56
2021/01/15 07:37:19;;;;;;;24.75;16.13;;;;;;;;;;5033621;28;20617;-55
2021/01/15 07:40:06;;;;;;;23.90;16.75;;;;;;;;;;5033251;28;20206;-55
2021/01/15 07:42:38;;;;;;;20.83;14.10;;;;;;;;;;5033043;28;20183;-55
2021/01/15 07:45:06;;;;;;;23.90;15.30;;;;;;;;;;5033009;28;20186;-54
2021/01/15 07:47:37;;;;;;;21.80;15.30;;;;;;;;;;5032673;28;20698;-55
2021/01/15 07:50:04;;;;;;;24.17;16.17;;;;;;;;;;5033459;28;20554;-55
2021/01/15 07:52:31;;;;;;;25.38;14.77;;;;;;;;;;5032791;28;20674;-55
2021/01/15 07:55:00;;;;;;;20.17;14.05;;;;;;;;;;5033192;28;20574;-55
2021/01/15 07:57:28;;;;;;;22.75;15.20;;;;;;;;;;5033138;28;20202;-55
2021/01/15 07:59:55;;;;;;;21.55;16.13;;;;;;;;;;5033883;28;20229;-55
2021/01/15 08:02:22;;;;;;;25.95;15.55;;;;;;;;;;5033109;28;20206;-55
2021/01/15 08:04:49;;;;;;;22.42;15.60;;;;;;;;;;5032946;28;20202;-56
2021/01/15 08:07:19;;;;;;;23.30;15.73;;;;;;;;;;5033105;28;20591;-55
2021/01/15 08:09:46;;;;;;;23.55;16.50;;;;;;;;;;5033187;28;20190;-56
2021/01/15 08:12:12;;;;;;;23.52;17.33;;;;;;;;;;5032413;28;20276;-56
2021/01/15 08:14:40;;;;;;;24.45;15.25;;;;;;;;;;5032881;28;20214;-56
2021/01/15 08:17:11;;;;;;;27.23;16.63;;;;;;;;;;5032781;28;20252;-55
2021/01/15 08:19:38;;;;;;;22.98;16.10;;;;;;;;;;5033563;28;20601;-56
2021/01/15 08:22:07;;;;;;;23.88;15.55;;;;;;;;;;5032876;28;20292;-57
2021/01/15 08:24:33;;;;;;;22.75;15.98;;;;;;;;;;5033594;28;20210;-56
2021/01/15 08:27:00;;;;;;;23.48;16.08;;;;;;;;;;5033350;28;20222;-56
2021/01/15 08:29:28;;;;;;;20.88;15.77;;;;;;;;;;5033402;28;20202;-56
2021/01/15 08:31:57;;;;;;;23.80;16.02;;;;;;;;;;5033030;28;20234;-56
2021/01/15 08:34:24;;;;;;;25.45;16.48;;;;;;;;;;5033457;28;20202;-55
2021/01/15 08:36:52;;;;;;;28.77;16.08;;;;;;;;;;5033376;28;20199;-56
2021/01/15 08:39:18;;;;;;;25.95;17.35;;;;;;;;;;5033231;28;20202;-54
2021/01/15 08:41:45;;;;;;;24.92;17.83;;;;;;;;;;5032489;28;20737;-56
2021/01/15 08:44:14;;;;;;;27.50;18.30;;;;;;;;;;5032107;28;20237;-55
2021/01/15 08:46:41;;;;;;;24.33;16.25;;;;;;;;;;5032568;28;20226;-56
2021/01/15 08:49:09;;;;;;;29.38;18.73;;;;;;;;;;5032045;28;20214;-56
2021/01/15 08:51:36;;;;;;;25.67;17.38;;;;;;;;;;5031889;28;20222;-56
2021/01/15 08:54:07;;;;;;;26.83;17.25;;;;;;;;;;5035265;28;20222;-56
2021/01/15 08:56:35;;;;;;;28.33;17.90;;;;;;;;;;5036525;28;20182;-56
2021/01/15 08:59:01;;;;;;;28.50;16.08;;;;;;;;;;5036475;28;20202;-56
2021/01/15 09:01:29;;;;;;;31.50;18.88;;;;;;;;;;5036648;28;20633;-56
2021/01/15 09:03:58;;;;;;;26.52;17.50;;;;;;;;;;5036569;28;20203;-56
2021/01/15 09:06:27;;;;;;;26.77;16.50;;;;;;;;;;5036264;28;20292;-56
2021/01/15 09:08:56;;;;;;;21.88;16.65;;;;;;;;;;5036047;28;20597;-54
2021/01/15 09:11:30;;;;;;;26.17;16.85;;;;;;;;;;5035812;28;20311;-55
2021/01/15 09:13:57;;;;;;;26.45;17.73;;;;;;;;;;5036169;28;20285;-55
2021/01/15 09:16:25;;;;;;;25.95;17.60;;;;;;;;;;5035784;28;20248;-55
2021/01/15 09:18:52;;;;;;;30.48;18.20;;;;;;;;;;5036034;28;20198;-55
2021/01/15 09:21:20;;;;;;;29.50;17.45;;;;;;;;;;5035372;28;20257;-55
2021/01/15 09:23:47;;;;;;;27.27;17.55;;;;;;;;;;5035798;28;20209;-55
2021/01/15 09:26:14;;;;;;;26.65;18.33;;;;;;;;;;5035520;28;20229;-55
2021/01/15 09:28:41;;;;;;;24.73;16.65;;;;;;;;;;5036315;28;20199;-58
2021/01/15 09:31:08;;;;;;;31.63;19.60;;;;;;;;;;5036464;28;20226;-56
2021/01/15 09:33:46;;;;;;;27.33;18.25;;;;;;;;;;5035894;28;20583;-56
2021/01/15 09:36:14;;;;;;;25.27;16.98;;;;;;;;;;5036161;28;20190;-55
2021/01/15 09:38:41;;;;;;;28.10;17.05;;;;;;;;;;5035667;28;20665;-54
2021/01/15 09:41:08;;;;;;;27.58;16.77;;;;;;;;;;5035161;28;20280;-57
2021/01/15 09:43:35;;;;;;;29.90;18.88;;;;;;;;;;5035717;28;20206;-56
2021/01/15 09:46:02;;;;;;;26.02;16.95;;;;;;;;;;5035672;28;20215;-56
2021/01/15 09:48:28;;;;;;;28.85;17.55;;;;;;;;;;5035646;28;20280;-56
2021/01/15 09:50:55;;;;;;;28.23;17.63;;;;;;;;;;5034956;28;20244;-54
2021/01/15 09:53:22;;;;;;;24.83;17.70;;;;;;;;;;5035621;28;20203;-55
2021/01/15 09:55:49;;;;;;;28.75;18.45;;;;;;;;;;5036082;28;20252;-55
2021/01/15 09:58:16;;;;;;;23.85;15.38;;;;;;;;;;5035140;28;20261;-55
2021/01/15 10:00:43;;;;;;;26.08;17.13;;;;;;;;;;5034716;28;20296;-57
2021/01/15 10:03:10;;;;;;;26.70;17.67;;;;;;;;;;5035494;28;20202;-57
2021/01/15 10:05:37;;;;;;;24.58;17.10;;;;;;;;;;5034821;28;20214;-55
2021/01/15 10:08:04;;;;;;;27.65;16.48;;;;;;;;;;5035971;28;20226;-57
2021/01/15 10:10:31;;;;;;;26.40;17.83;;;;;;;;;;5035098;28;20230;-60
2021/01/15 10:12:57;;;;;;;23.33;14.85;;;;;;;;;;5034648;28;20728;-56
2021/01/15 10:15:25;;;;;;;23.15;16.13;;;;;;;;;;5034708;28;20275;-56
2021/01/15 10:17:52;;;;;;;20.38;13.60;;;;;;;;;;5034725;28;20256;-57
2021/01/15 10:20:20;;;;;;;22.05;14.70;;;;;;;;;;5034307;28;20618;-57
2021/01/15 10:22:47;;;;;;;18.92;14.10;;;;;;;;;;5073533;22;20367;-59
2021/01/15 10:25:14;;;;;;;19.55;14.63;;;;;;;;;;5056454;28;20213;-60
2021/01/15 10:27:41;;;;;;;18.30;13.13;;;;;;;;;;5055642;28;20267;-59
2021/01/15 10:30:08;;;;;;;17.40;13.50;;;;;;;;;;5056139;28;20269;-61
2021/01/15 10:32:36;;;;;;;17.35;12.00;;;;;;;;;;5056616;28;20268;-59
2021/01/15 10:35:03;;;;;;;19.63;12.50;;;;;;;;;;5057510;28;20209;-60
2021/01/15 10:37:31;;;;;;;16.58;12.45;;;;;;;;;;5056824;28;20571;-61
2021/01/15 10:39:58;;;;;;;18.95;12.05;;;;;;;;;;5056157;28;20747;-60
2021/01/15 10:42:27;;;;;;;16.58;11.20;;;;;;;;;;5055681;28;20225;-60
2021/01/15 10:44:53;;;;;;;16.08;11.48;;;;;;;;;;5055847;28;20206;-62
2021/01/15 10:47:20;;;;;;;11.10;9.30;;;;;;;;;;5055798;28;20218;-60
2021/01/15 10:49:48;;;;;;;16.10;12.30;;;;;;;;;;5055878;28;20201;-60
2021/01/15 10:52:16;;;;;;;16.02;12.15;;;;;;;;;;5055075;28;20232;-59
2021/01/15 10:54:43;;;;;;;14.55;10.52;;;;;;;;;;5057988;28;20202;-60
2021/01/15 10:57:09;;;;;;;14.38;11.27;;;;;;;;;;5062583;28;20205;-59
2021/01/15 10:59:39;;;;;;;12.45;10.02;;;;;;;;;;5062652;28;20202;-61
2021/01/15 11:02:06;;;;;;;15.40;11.15;;;;;;;;;;5057224;28;20221;-61
2021/01/15 11:04:33;;;;;;;18.75;12.35;;;;;;;;;;5056774;28;20685;-61
2021/01/15 11:07:01;;;;;;;16.67;11.20;;;;;;;;;;5055572;28;20218;-61
2021/01/15 11:09:27;;;;;;;18.35;12.30;;;;;;;;;;5056152;28;20292;-60
2021/01/15 11:11:56;;;;;;;17.65;11.32;;;;;;;;;;5055551;28;20225;-61
2021/01/15 11:14:23;;;;;;;16.10;11.23;;;;;;;;;;5055882;28;20201;-61
2021/01/15 11:16:49;;;;;;;14.48;9.93;;;;;;;;;;5053536;28;20275;-63
2021/01/15 11:19:16;;;;;;;16.35;10.35;;;;;;;;;;5054935;28;20259;-63
2021/01/15 11:21:43;;;;;;;15.15;11.63;;;;;;;;;;5054539;28;20283;-62
2021/01/15 11:24:11;;;;;;;15.48;11.60;;;;;;;;;;5054810;28;20186;-62
2021/01/15 11:26:38;;;;;;;18.27;11.20;;;;;;;;;;5054690;28;20217;-61
2021/01/15 11:29:05;;;;;;;14.40;10.50;;;;;;;;;;5054318;28;20271;-61
2021/01/15 11:31:33;;;;;;;16.02;11.02;;;;;;;;;;5056089;28;20251;-61
2021/01/15 11:33:59;;;;;;;15.35;11.40;;;;;;;;;;5055117;28;20280;-61
2021/01/15 11:36:30;;;;;;;13.20;10.95;;;;;;;;;;5054593;28;20224;-63
2021/01/15 11:38:57;;;;;;;13.98;10.50;;;;;;;;;;5053838;28;20440;-61
2021/01/15 11:41:24;;;;;;;12.18;10.65;;;;;;;;;;5053856;28;20210;-61
2021/01/15 11:43:51;;;;;;;14.27;10.43;;;;;;;;;;5055119;28;20197;-61
2021/01/15 11:46:18;;;;;;;13.73;11.20;;;;;;;;;;5054966;28;20638;-60
2021/01/15 11:48:45;;;;;;;14.18;10.05;;;;;;;;;;5053984;28;20197;-59
2021/01/15 11:51:12;;;;;;;11.35;8.70;;;;;;;;;;5053543;28;20197;-61
2021/01/15 11:53:39;;;;;;;12.40;9.85;;;;;;;;;;5058235;28;20208;-62
2021/01/15 11:56:07;;;;;;;14.32;10.55;;;;;;;;;;5055028;28;20202;-60
2021/01/15 11:58:35;;;;;;;14.27;10.02;;;;;;;;;;5056133;28;20201;-61
2021/01/15 12:01:02;;;;;;;14.95;10.60;;;;;;;;;;5060204;28;20201;-61
2021/01/15 12:03:29;;;;;;;15.65;9.93;;;;;;;;;;5064218;28;20221;-62
2021/01/15 12:05:55;;;;;;;15.98;9.90;;;;;;;;;;5064708;28;20202;-61
2021/01/15 12:08:22;;;;;;;14.57;10.00;;;;;;;;;;5065259;28;20197;-61
2021/01/15 12:10:50;;;;;;;13.20;10.40;;;;;;;;;;5063014;28;20251;-61
2021/01/15 12:13:17;;;;;;;12.30;9.57;;;;;;;;;;5066156;28;20226;-60
2021/01/15 12:15:49;;;;;;;13.70;10.77;;;;;;;;;;5061904;28;20582;-60
2021/01/15 12:18:15;;;;;;;13.48;10.55;;;;;;;;;;5059489;28;20613;-61
2021/01/15 12:20:42;;;;;;;14.00;10.27;;;;;;;;;;5057616;28;20201;-59
2021/01/15 12:23:09;;;;;;;14.75;9.88;;;;;;;;;;5055414;28;20736;-61
2021/01/15 12:25:38;;;;;;;14.23;11.13;;;;;;;;;;5057069;28;20208;-60
2021/01/15 12:28:06;;;;;;;14.02;10.00;;;;;;;;;;5057985;28;20220;-60
2021/01/15 12:30:32;;;;;;;15.13;10.45;;;;;;;;;;5059637;28;20263;-60
2021/01/15 12:33:04;;;;;;;14.25;10.05;;;;;;;;;;5060075;28;20229;-62
2021/01/15 12:35:31;;;;;;;12.38;9.25;;;;;;;;;;5059756;28;20186;-60
2021/01/15 12:38:02;;;;;;;15.10;11.07;;;;;;;;;;5059998;28;20225;-59
2021/01/15 12:40:29;;;;;;;12.93;10.07;;;;;;;;;;5060227;28;20186;-60
2021/01/15 12:42:56;;;;;;;13.75;9.98;;;;;;;;;;5061069;28;20222;-61
2021/01/15 12:45:22;;;;;;;14.15;10.60;;;;;;;;;;5062481;28;20205;-60
2021/01/15 12:47:49;;;;;;;12.23;9.93;;;;;;;;;;5062523;28;20226;-60
2021/01/15 12:50:17;;;;;;;14.40;10.88;;;;;;;;;;5060634;28;20202;-61
2021/01/15 12:52:44;;;;;;;13.48;9.45;;;;;;;;;;5059896;28;20230;-60
2021/01/15 12:55:11;;;;;;;14.45;10.35;;;;;;;;;;5061233;28;20197;-61
2021/01/15 12:57:37;;;;;;;13.88;10.57;;;;;;;;;;5061551;28;20262;-60
2021/01/15 13:00:05;;;;;;;15.57;11.13;;;;;;;;;;5060623;28;20601;-60
2021/01/15 13:02:32;;;;;;;12.05;8.77;;;;;;;;;;5060932;28;20226;-61
2021/01/15 13:04:58;;;;;;;12.18;8.95;;;;;;;;;;5070405;28;20205;-60
2021/01/15 13:07:26;;;;;;;13.23;9.52;;;;;;;;;;5068789;28;20218;-60
2021/01/15 13:09:53;;;;;;;13.18;9.57;;;;;;;;;;5063033;28;20213;-59
2021/01/15 13:12:19;;;;;;;14.30;9.15;;;;;;;;;;5060799;28;20225;-60
2021/01/15 13:14:46;;;;;;;13.93;9.70;;;;;;;;;;5062361;28;20201;-59
2021/01/15 13:17:13;;;;;;;12.90;9.52;;;;;;;;;;5065570;28;20197;-61
2021/01/15 13:19:40;;;;;;;13.07;9.05;;;;;;;;;;5066963;28;20224;-59
2021/01/15 13:22:06;;;;;;;14.43;10.80;;;;;;;;;;5065042;28;20229;-60
2021/01/15 13:24:34;;;;;;;11.93;9.32;;;;;;;;;;5062719;28;20652;-61
2021/01/15 13:27:01;;;;;;;12.40;9.60;;;;;;;;;;5058997;28;20220;-61
2021/01/15 13:29:27;;;;;;;12.63;8.43;;;;;;;;;;5060539;28;20666;-59
2021/01/15 13:31:55;;;;;;;11.52;8.13;;;;;;;;;;5060863;28;20229;-59
2021/01/15 13:34:22;;;;;;;12.32;7.85;;;;;;;;;;5061423;28;20202;-60
2021/01/15 13:36:49;;;;;;;12.60;9.02;;;;;;;;;;5061806;28;20499;-59
2021/01/15 13:39:19;;;;;;;12.75;10.25;;;;;;;;;;5058127;28;20212;-60
2021/01/15 13:41:46;;;;;;;15.48;9.65;;;;;;;;;;5057000;28;20226;-60
2021/01/15 13:44:13;;;;;;;14.05;9.75;;;;;;;;;;5056623;28;20202;-59
2021/01/15 13:46:40;;;;;;;13.98;10.00;;;;;;;;;;5056780;28;20279;-60
2021/01/15 13:49:06;;;;;;;14.57;10.50;;;;;;;;;;5057403;28;20202;-59
2021/01/15 13:51:33;;;;;;;14.85;9.57;;;;;;;;;;5057806;28;20224;-60
2021/01/15 13:54:00;;;;;;;13.50;9.18;;;;;;;;;;5057345;28;20212;-60
2021/01/15 13:56:27;;;;;;;13.32;10.05;;;;;;;;;;5057618;28;20198;-60
2021/01/15 13:58:55;;;;;;;13.02;9.35;;;;;;;;;;5070659;28;20232;-60
2021/01/15 14:01:21;;;;;;;13.73;10.65;;;;;;;;;;5066457;28;20201;-59
2021/01/15 14:03:48;;;;;;;13.88;9.82;;;;;;;;;;5062856;28;20202;-60
2021/01/15 14:06:15;;;;;;;15.50;9.95;;;;;;;;;;5060041;28;20210;-61
2021/01/15 14:08:42;;;;;;;13.85;9.40;;;;;;;;;;5057246;28;20603;-61
2021/01/15 14:11:08;;;;;;;12.10;9.43;;;;;;;;;;5056745;28;20669;-60
2021/01/15 14:13:35;;;;;;;13.68;8.90;;;;;;;;;;5057618;28;20234;-60
2021/01/15 14:16:03;;;;;;;13.63;9.68;;;;;;;;;;5056515;28;20198;-59
2021/01/15 14:18:30;;;;;;;17.77;10.57;;;;;;;;;;5055837;28;20198;-60
2021/01/15 14:20:56;;;;;;;14.38;8.95;;;;;;;;;;5055631;28;20198;-60
2021/01/15 14:23:23;;;;;;;11.98;9.18;;;;;;;;;;5055956;28;20303;-59
2021/01/15 14:25:50;;;;;;;12.77;8.88;;;;;;;;;;5065103;28;20228;-60
2021/01/15 14:28:16;;;;;;;16.13;9.85;;;;;;;;;;5070201;28;20217;-63
2021/01/15 14:30:43;;;;;;;11.25;9.70;;;;;;;;;;5068799;28;20201;-61
2021/01/15 14:33:11;;;;;;;12.00;8.65;;;;;;;;;;5069137;28;20225;-60